Weather observations for the past three days for
Rolla / Vichy, Rolla National Airport
Imperial (Metric)
Date Time (cdt) Wind (mph) Vis. (mi.) Weather Sky Cond. Temperature (ºF) Relative Humidity Wind Chill (°F) Heat Index (°F) Pressure Precipitation (in)
Air Dwpt 6 hour altimeter (in) sea level (mb) 1 hr 3 hr 6 hr
Max. Min.
05 22:53 E 6 10.00 Fair CLR 81 69.1 67% 84 29.97 1013.2
05 21:53 E 3 10.00 Fair CLR 80.1 70 71% 83 29.96 1012.9
05 20:53 NE 5 10.00 Fair CLR 82.9 70 65% 87 29.93 1012.2
05 19:53 E 3 10.00 Fair CLR 84 73 70% 90 29.92 1011.7
05 18:53 NE 3 10.00 Fair CLR 91.9 72 99 91.9 52% 100 29.92 1011.8
05 17:53 NE 5 10.00 Fair CLR 93.9 70 46% 100 29.92 1011.5
05 16:53 NW 6 10.00 Fair CLR 98.1 68 38% 103 29.92 1011.5
05 15:53 NE 6 10.00 Fair CLR 98.1 66.9 36% 103 29.93 1011.9
05 12:53 NW 6 10.00 Fair CLR 96.1 66.9 97 73.9 39% 100 29.99 1013.9
05 11:53 W 6 10.00 Fair CLR 95 71.1 46% 102 30.01 1014.6
05 10:53 Vrbl 6 10.00 Fair CLR 91.9 72 52% 100 30.01 1014.7
05 09:53 W 7 10.00 Fair CLR 88 70 55% 93 30.01 1014.6
05 08:53 SW 8 10.00 Fair CLR 82.9 70 65% 87 30.01 1014.6
05 07:53 SW 9 10.00 Fair CLR 78.1 69.1 74% 80 30 1014.5
05 04:53 S 9 10.00 Fair CLR 75.9 68 77% 77 29.98 1013.7
05 03:53 S 9 10.00 Fair CLR 75.9 69.1 79% 77 29.97 1013.3
05 02:53 S 8 10.00 Fair CLR 77 69.1 77% 79 29.97 1013.2
05 01:53 S 8 10.00 Fair CLR 80.1 69.1 69% 83 29.98 1013.4
05 00:53 S 8 10.00 Fair CLR 81 69.1 90 80.1 67% 84 29.98 1013.6
04 23:53 S 8 10.00 Fair CLR 82 70 67% 86 29.97 1013.3
04 22:53 S 5 10.00 Fair CLR 81 72 74% 85 29.98 1013.7
04 21:53 SE 8 10.00 Fair CLR 82.9 72 70% 88 29.98 1013.7
04 20:53 E 8 10.00 Mostly Cloudy BKN090 84.9 72 65% 91 29.96 1013.1
04 19:53 E 5 10.00 A Few Clouds FEW080 84.9 73 68% 92 29.94 1012.5
04 18:53 E 5 10.00 Fair CLR 91 73 98.1 91 56% 100 29.94 1012.3
04 17:53 SE 10 10.00 Fair CLR 93.9 71.1 48% 101 29.94 1012.3
04 16:53 SE 10 10.00 Fair CLR 95 70 44% 101 29.95 1012.5
04 15:53 SE 8 10.00 Partly Cloudy SCT070 97 69.1 40% 103 29.96 1012.9
04 14:53 SE 6 10.00 Fair CLR 97 68 39% 102 29.98 1013.7
04 13:53 SW 7 10.00 A Few Clouds FEW060 95 69.1 43% 101 30.01 1014.4
04 12:53 Calm 10.00 A Few Clouds FEW050 93.9 70 93.9 73 46% 100 30.02 1015.0
04 11:53 Calm 10.00 Fair CLR 91 71.1 52% 98 30.04 1015.8
04 10:53 Vrbl 5 10.00 Fair CLR 90 72 56% 97 30.05 1016.0
04 09:53 SW 7 10.00 Fair CLR 86 72 63% 92 30.04 1015.7
04 08:53 SW 9 10.00 Fair CLR 82 71.1 69% 86 30.04 1015.7
04 07:53 S 8 10.00 Fair CLR 78.1 70 76% 80 30.03 1015.6
04 06:53 SW 7 10.00 Fair CLR 73 68 81 73 84% 30.02 1015.1
04 05:53 S 8 10.00 Fair CLR 73.9 68 82% 30 1014.4
04 04:53 S 7 10.00 Fair CLR 75 68 79% 76 30 1014.2
04 03:53 S 9 10.00 Fair CLR 77 68 74% 79 29.98 1013.6
04 02:53 S 9 10.00 Fair CLR 78.1 66.9 69% 80 29.97 1013.3
04 01:53 S 9 10.00 Fair CLR 80.1 68 67% 83 29.98 1013.4
04 00:53 S 7 10.00 Fair CLR 79 68 89.1 79 69% 81 29.98 1013.5
03 23:53 S 7 10.00 Fair CLR 81 69.1 67% 84 29.97 1013.4
03 22:53 S 7 10.00 Fair CLR 82 71.1 69% 86 29.97 1013.5
03 21:53 SE 9 10.00 Fair CLR 82.9 72 70% 88 29.97 1013.3
03 20:53 SE 9 10.00 Fair CLR 84 72 67% 90 29.95 1012.8
03 19:53 SE 9 10.00 Mostly Cloudy BKN080 86 71.1 61% 92 29.94 1012.4
03 18:53 E 7 10.00 Overcast BKN090 OVC100 90 71.1 98.1 89.1 54% 96 29.93 1012.0
03 17:53 E 8 10.00 Mostly Cloudy BKN090 93.9 70 46% 100 29.93 1011.9
03 16:53 SE 9 10.00 Mostly Cloudy BKN085 97 69.1 40% 103 29.92 1011.7
03 15:53 SE 7 10.00 Fair CLR 97 68 39% 102 29.94 1012.2
03 13:53 Vrbl 7 10.00 Fair CLR 95 68 41% 100 29.98 1013.5
03 12:53 SW 3 10.00 Fair CLR 93.9 70 93.9 73 46% 100 30 1014.3
03 11:53 SW 8 10.00 Fair CLR 91 70 50% 97 30.02 1015.0
03 10:53 SW 6 10.00 Fair CLR 89.1 71.1 55% 95 30.04 1015.6
03 09:53 SW 9 10.00 Fair CLR 84.9 71.1 63% 90 30.04 1015.7
03 08:53 SW 9 10.00 Fair CLR 82 71.1 69% 86 30.04 1015.8
03 07:53 S 9 10.00 Fair CLR 78.1 70 76% 80 30.04 1015.7
03 06:53 S 8 10.00 Fair CLR 73 68 82 72 84% 30.03 1015.3
03 05:53 SW 8 10.00 Fair CLR 73.9 68 82% 30.02 1015.0
03 04:53 S 9 10.00 Fair CLR 75.9 68 77% 77 30.01 1014.7
03 03:53 S 8 10.00 Fair CLR 77 66.9 71% 79 30.01 1014.7
03 02:53 S 8 10.00 Fair CLR 78.1 68 71% 80 30 1014.4
03 01:53 S 8 10.00 Fair CLR 80.1 68 67% 83 30.01 1014.6
03 00:53 S 10 10.00 Fair CLR 82 68 89.1 80.1 63% 85 30 1014.4
02 23:53 S 9 10.00 Fair CLR 82 68 63% 85 30 1014.2
Date Time (cdt) Wind (mph) Vis. (mi.) Weather Sky Cond. Air Dwpt Max. Min. Relative Humidity Wind Chill (°F) Heat Index (°F) altimeter (in) sea level (mb) 1 hr 3 hr 6 hr
6 hour
Temperature (ºF) Pressure Precipitation (in)